sensor_id;sensor_type;location;lat;lon;timestamp;P1;durP1;ratioP1;P2;durP2;ratioP2
3993;SDS011;2011;48.238;13.948;2023-05-10T00:01:21;9.10;;;4.90;;
3993;SDS011;2011;48.238;13.948;2023-05-10T00:03:47;7.77;;;4.73;;
3993;SDS011;2011;48.238;13.948;2023-05-10T00:06:14;11.40;;;5.27;;
3993;SDS011;2011;48.238;13.948;2023-05-10T00:08:43;8.77;;;5.13;;
3993;SDS011;2011;48.238;13.948;2023-05-10T00:11:10;10.13;;;5.60;;
3993;SDS011;2011;48.238;13.948;2023-05-10T00:13:37;7.70;;;4.40;;
3993;SDS011;2011;48.238;13.948;2023-05-10T00:16:04;8.40;;;5.23;;
3993;SDS011;2011;48.238;13.948;2023-05-10T00:18:31;7.00;;;4.50;;
3993;SDS011;2011;48.238;13.948;2023-05-10T00:20:58;11.20;;;4.70;;
3993;SDS011;2011;48.238;13.948;2023-05-10T00:23:25;11.30;;;5.53;;
3993;SDS011;2011;48.238;13.948;2023-05-10T00:25:53;11.00;;;5.00;;
3993;SDS011;2011;48.238;13.948;2023-05-10T00:28:20;7.53;;;4.40;;
3993;SDS011;2011;48.238;13.948;2023-05-10T00:30:47;8.27;;;4.93;;
3993;SDS011;2011;48.238;13.948;2023-05-10T00:33:14;7.23;;;4.87;;
3993;SDS011;2011;48.238;13.948;2023-05-10T00:35:41;8.43;;;3.90;;
3993;SDS011;2011;48.238;13.948;2023-05-10T00:38:08;10.83;;;4.93;;
3993;SDS011;2011;48.238;13.948;2023-05-10T00:40:35;6.77;;;4.53;;
3993;SDS011;2011;48.238;13.948;2023-05-10T00:43:04;10.17;;;5.03;;
3993;SDS011;2011;48.238;13.948;2023-05-10T00:45:31;11.43;;;4.93;;
3993;SDS011;2011;48.238;13.948;2023-05-10T00:48:00;6.80;;;4.23;;
3993;SDS011;2011;48.238;13.948;2023-05-10T00:50:28;8.20;;;4.57;;
3993;SDS011;2011;48.238;13.948;2023-05-10T00:52:56;6.80;;;4.43;;
3993;SDS011;2011;48.238;13.948;2023-05-10T00:55:24;8.73;;;4.20;;
3993;SDS011;2011;48.238;13.948;2023-05-10T00:57:51;8.23;;;5.17;;
3993;SDS011;2011;48.238;13.948;2023-05-10T01:00:20;8.10;;;4.30;;
3993;SDS011;2011;48.238;13.948;2023-05-10T01:02:47;7.20;;;4.40;;
3993;SDS011;2011;48.238;13.948;2023-05-10T01:05:15;8.77;;;5.10;;
3993;SDS011;2011;48.238;13.948;2023-05-10T01:07:42;9.40;;;4.20;;
3993;SDS011;2011;48.238;13.948;2023-05-10T01:10:09;15.23;;;5.87;;
3993;SDS011;2011;48.238;13.948;2023-05-10T01:12:37;8.70;;;4.07;;
3993;SDS011;2011;48.238;13.948;2023-05-10T01:15:06;7.50;;;4.53;;
3993;SDS011;2011;48.238;13.948;2023-05-10T01:17:37;8.10;;;5.10;;
3993;SDS011;2011;48.238;13.948;2023-05-10T01:20:07;10.30;;;5.00;;
3993;SDS011;2011;48.238;13.948;2023-05-10T01:22:41;7.30;;;4.90;;
3993;SDS011;2011;48.238;13.948;2023-05-10T01:25:31;10.03;;;5.10;;
3993;SDS011;2011;48.238;13.948;2023-05-10T01:28:16;8.47;;;4.93;;
3993;SDS011;2011;48.238;13.948;2023-05-10T01:31:13;7.70;;;4.90;;
3993;SDS011;2011;48.238;13.948;2023-05-10T01:33:51;9.27;;;5.33;;
3993;SDS011;2011;48.238;13.948;2023-05-10T01:36:25;7.67;;;4.50;;
3993;SDS011;2011;48.238;13.948;2023-05-10T01:38:58;8.27;;;5.33;;
3993;SDS011;2011;48.238;13.948;2023-05-10T01:41:31;7.77;;;5.50;;
3993;SDS011;2011;48.238;13.948;2023-05-10T01:44:09;6.77;;;4.50;;
3993;SDS011;2011;48.238;13.948;2023-05-10T01:46:40;7.83;;;4.97;;
3993;SDS011;2011;48.238;13.948;2023-05-10T01:49:09;10.97;;;5.33;;
3993;SDS011;2011;48.238;13.948;2023-05-10T01:51:41;7.90;;;5.40;;
3993;SDS011;2011;48.238;13.948;2023-05-10T01:54:13;12.53;;;5.30;;
3993;SDS011;2011;48.238;13.948;2023-05-10T01:56:43;9.73;;;5.40;;
3993;SDS011;2011;48.238;13.948;2023-05-10T01:59:15;12.70;;;5.00;;
3993;SDS011;2011;48.238;13.948;2023-05-10T02:01:44;8.07;;;5.50;;
3993;SDS011;2011;48.238;13.948;2023-05-10T02:04:15;9.03;;;5.80;;
3993;SDS011;2011;48.238;13.948;2023-05-10T02:06:43;9.10;;;5.80;;
3993;SDS011;2011;48.238;13.948;2023-05-10T02:09:12;11.17;;;5.90;;
3993;SDS011;2011;48.238;13.948;2023-05-10T02:11:41;8.40;;;6.00;;
3993;SDS011;2011;48.238;13.948;2023-05-10T02:14:09;8.63;;;5.80;;
3993;SDS011;2011;48.238;13.948;2023-05-10T02:16:38;9.03;;;5.60;;
3993;SDS011;2011;48.238;13.948;2023-05-10T02:19:06;7.67;;;5.60;;
3993;SDS011;2011;48.238;13.948;2023-05-10T02:21:36;7.70;;;4.60;;
3993;SDS011;2011;48.238;13.948;2023-05-10T02:24:05;7.87;;;5.43;;
3993;SDS011;2011;48.238;13.948;2023-05-10T02:26:34;11.33;;;6.07;;
3993;SDS011;2011;48.238;13.948;2023-05-10T02:29:02;8.90;;;5.60;;
3993;SDS011;2011;48.238;13.948;2023-05-10T02:31:31;12.97;;;5.63;;
3993;SDS011;2011;48.238;13.948;2023-05-10T02:33:59;10.60;;;5.80;;
3993;SDS011;2011;48.238;13.948;2023-05-10T02:36:27;7.47;;;5.37;;
3993;SDS011;2011;48.238;13.948;2023-05-10T02:38:57;8.53;;;5.97;;
3993;SDS011;2011;48.238;13.948;2023-05-10T02:41:26;8.70;;;5.50;;
3993;SDS011;2011;48.238;13.948;2023-05-10T02:43:55;9.23;;;6.03;;
3993;SDS011;2011;48.238;13.948;2023-05-10T02:46:25;8.63;;;5.37;;
3993;SDS011;2011;48.238;13.948;2023-05-10T02:48:52;9.63;;;5.53;;
3993;SDS011;2011;48.238;13.948;2023-05-10T02:51:19;7.57;;;5.60;;
3993;SDS011;2011;48.238;13.948;2023-05-10T02:53:50;14.43;;;6.70;;
3993;SDS011;2011;48.238;13.948;2023-05-10T02:56:24;8.80;;;5.90;;
3993;SDS011;2011;48.238;13.948;2023-05-10T02:58:54;9.70;;;5.90;;
3993;SDS011;2011;48.238;13.948;2023-05-10T03:01:22;9.03;;;5.90;;
3993;SDS011;2011;48.238;13.948;2023-05-10T03:03:48;11.23;;;5.93;;
3993;SDS011;2011;48.238;13.948;2023-05-10T03:06:16;8.03;;;5.50;;
3993;SDS011;2011;48.238;13.948;2023-05-10T03:08:42;9.33;;;5.67;;
3993;SDS011;2011;48.238;13.948;2023-05-10T03:11:16;13.30;;;5.90;;
3993;SDS011;2011;48.238;13.948;2023-05-10T03:13:56;8.13;;;5.60;;
3993;SDS011;2011;48.238;13.948;2023-05-10T03:16:35;10.87;;;5.90;;
3993;SDS011;2011;48.238;13.948;2023-05-10T03:19:11;9.37;;;5.80;;
3993;SDS011;2011;48.238;13.948;2023-05-10T03:21:43;7.50;;;5.87;;
3993;SDS011;2011;48.238;13.948;2023-05-10T03:24:15;8.03;;;5.53;;
3993;SDS011;2011;48.238;13.948;2023-05-10T03:26:46;11.83;;;6.13;;
3993;SDS011;2011;48.238;13.948;2023-05-10T03:29:14;10.47;;;5.80;;
3993;SDS011;2011;48.238;13.948;2023-05-10T03:31:42;8.20;;;5.97;;
3993;SDS011;2011;48.238;13.948;2023-05-10T03:34:09;12.43;;;6.00;;
3993;SDS011;2011;48.238;13.948;2023-05-10T03:36:36;9.93;;;6.80;;
3993;SDS011;2011;48.238;13.948;2023-05-10T03:39:03;22.27;;;7.50;;
3993;SDS011;2011;48.238;13.948;2023-05-10T03:41:30;9.90;;;6.20;;
3993;SDS011;2011;48.238;13.948;2023-05-10T03:43:58;8.50;;;5.97;;
3993;SDS011;2011;48.238;13.948;2023-05-10T03:46:25;9.10;;;5.70;;
3993;SDS011;2011;48.238;13.948;2023-05-10T03:48:52;10.50;;;6.50;;
3993;SDS011;2011;48.238;13.948;2023-05-10T03:51:19;10.00;;;5.97;;
3993;SDS011;2011;48.238;13.948;2023-05-10T03:53:47;12.77;;;6.90;;
3993;SDS011;2011;48.238;13.948;2023-05-10T03:56:14;9.63;;;6.27;;
3993;SDS011;2011;48.238;13.948;2023-05-10T03:58:41;11.87;;;6.37;;
3993;SDS011;2011;48.238;13.948;2023-05-10T04:01:09;11.30;;;6.00;;
3993;SDS011;2011;48.238;13.948;2023-05-10T04:03:36;10.97;;;6.57;;
3993;SDS011;2011;48.238;13.948;2023-05-10T04:06:04;9.83;;;5.97;;
3993;SDS011;2011;48.238;13.948;2023-05-10T04:08:33;9.27;;;6.33;;
3993;SDS011;2011;48.238;13.948;2023-05-10T04:11:06;11.03;;;6.00;;
3993;SDS011;2011;48.238;13.948;2023-05-10T04:13:33;14.97;;;7.00;;
3993;SDS011;2011;48.238;13.948;2023-05-10T04:16:00;10.57;;;5.73;;
3993;SDS011;2011;48.238;13.948;2023-05-10T04:18:29;10.27;;;7.17;;
3993;SDS011;2011;48.238;13.948;2023-05-10T04:20:56;7.97;;;6.23;;
3993;SDS011;2011;48.238;13.948;2023-05-10T04:23:23;10.60;;;6.10;;
3993;SDS011;2011;48.238;13.948;2023-05-10T04:25:50;16.23;;;6.13;;
3993;SDS011;2011;48.238;13.948;2023-05-10T04:28:17;14.07;;;6.60;;
3993;SDS011;2011;48.238;13.948;2023-05-10T04:30:44;9.47;;;6.20;;
3993;SDS011;2011;48.238;13.948;2023-05-10T04:33:12;11.60;;;6.70;;
3993;SDS011;2011;48.238;13.948;2023-05-10T04:35:40;11.50;;;6.37;;
3993;SDS011;2011;48.238;13.948;2023-05-10T04:38:07;14.20;;;8.93;;
3993;SDS011;2011;48.238;13.948;2023-05-10T04:40:34;10.57;;;6.67;;
3993;SDS011;2011;48.238;13.948;2023-05-10T04:43:01;14.27;;;6.87;;
3993;SDS011;2011;48.238;13.948;2023-05-10T04:45:28;12.13;;;7.83;;
3993;SDS011;2011;48.238;13.948;2023-05-10T04:47:55;22.13;;;13.43;;
3993;SDS011;2011;48.238;13.948;2023-05-10T04:50:23;20.43;;;13.90;;
3993;SDS011;2011;48.238;13.948;2023-05-10T04:52:51;25.77;;;14.63;;
3993;SDS011;2011;48.238;13.948;2023-05-10T04:55:18;18.33;;;13.10;;
3993;SDS011;2011;48.238;13.948;2023-05-10T04:57:45;18.90;;;12.80;;
3993;SDS011;2011;48.238;13.948;2023-05-10T05:00:12;14.80;;;9.53;;
3993;SDS011;2011;48.238;13.948;2023-05-10T05:02:42;13.13;;;9.40;;
3993;SDS011;2011;48.238;13.948;2023-05-10T05:05:10;11.20;;;8.40;;
3993;SDS011;2011;48.238;13.948;2023-05-10T05:07:37;24.23;;;9.10;;
3993;SDS011;2011;48.238;13.948;2023-05-10T05:10:07;16.43;;;8.10;;
3993;SDS011;2011;48.238;13.948;2023-05-10T05:12:34;12.70;;;8.73;;
3993;SDS011;2011;48.238;13.948;2023-05-10T05:15:01;13.07;;;8.57;;
3993;SDS011;2011;48.238;13.948;2023-05-10T05:17:29;12.50;;;8.60;;
3993;SDS011;2011;48.238;13.948;2023-05-10T05:19:57;10.97;;;7.53;;
3993;SDS011;2011;48.238;13.948;2023-05-10T05:22:24;11.00;;;7.30;;
3993;SDS011;2011;48.238;13.948;2023-05-10T05:24:53;13.10;;;7.30;;
3993;SDS011;2011;48.238;13.948;2023-05-10T05:27:21;13.40;;;6.73;;
3993;SDS011;2011;48.238;13.948;2023-05-10T05:29:49;12.40;;;8.00;;
3993;SDS011;2011;48.238;13.948;2023-05-10T05:32:16;12.80;;;7.00;;
3993;SDS011;2011;48.238;13.948;2023-05-10T05:34:44;9.27;;;6.97;;
3993;SDS011;2011;48.238;13.948;2023-05-10T05:37:12;10.03;;;7.13;;
3993;SDS011;2011;48.238;13.948;2023-05-10T05:39:40;13.53;;;7.93;;
3993;SDS011;2011;48.238;13.948;2023-05-10T05:42:08;11.87;;;7.60;;
3993;SDS011;2011;48.238;13.948;2023-05-10T05:44:36;12.37;;;7.83;;
3993;SDS011;2011;48.238;13.948;2023-05-10T05:47:04;14.73;;;7.90;;
3993;SDS011;2011;48.238;13.948;2023-05-10T05:49:31;16.37;;;7.70;;
3993;SDS011;2011;48.238;13.948;2023-05-10T05:51:58;12.07;;;7.43;;
3993;SDS011;2011;48.238;13.948;2023-05-10T05:54:26;11.00;;;8.00;;
3993;SDS011;2011;48.238;13.948;2023-05-10T05:56:54;11.23;;;7.20;;
3993;SDS011;2011;48.238;13.948;2023-05-10T05:59:21;14.17;;;7.80;;
3993;SDS011;2011;48.238;13.948;2023-05-10T06:01:50;12.30;;;7.97;;
3993;SDS011;2011;48.238;13.948;2023-05-10T06:04:17;12.03;;;7.90;;
3993;SDS011;2011;48.238;13.948;2023-05-10T06:06:44;12.50;;;7.50;;
3993;SDS011;2011;48.238;13.948;2023-05-10T06:09:11;11.00;;;7.63;;
3993;SDS011;2011;48.238;13.948;2023-05-10T06:11:39;17.70;;;7.30;;
3993;SDS011;2011;48.238;13.948;2023-05-10T06:14:06;11.20;;;7.70;;
3993;SDS011;2011;48.238;13.948;2023-05-10T06:16:33;18.33;;;7.37;;
3993;SDS011;2011;48.238;13.948;2023-05-10T06:19:01;13.40;;;7.70;;
3993;SDS011;2011;48.238;13.948;2023-05-10T06:21:28;10.73;;;7.70;;
3993;SDS011;2011;48.238;13.948;2023-05-10T06:23:56;13.63;;;7.37;;
3993;SDS011;2011;48.238;13.948;2023-05-10T06:26:23;13.27;;;7.90;;
3993;SDS011;2011;48.238;13.948;2023-05-10T06:28:50;10.90;;;6.93;;
3993;SDS011;2011;48.238;13.948;2023-05-10T06:31:16;12.53;;;6.73;;
3993;SDS011;2011;48.238;13.948;2023-05-10T06:33:43;10.60;;;6.87;;
3993;SDS011;2011;48.238;13.948;2023-05-10T06:36:12;13.33;;;7.23;;
3993;SDS011;2011;48.238;13.948;2023-05-10T06:38:39;15.93;;;7.53;;
3993;SDS011;2011;48.238;13.948;2023-05-10T06:41:06;10.77;;;7.10;;
3993;SDS011;2011;48.238;13.948;2023-05-10T06:43:33;9.77;;;6.93;;
3993;SDS011;2011;48.238;13.948;2023-05-10T06:46:00;14.10;;;6.60;;
3993;SDS011;2011;48.238;13.948;2023-05-10T06:48:27;12.30;;;7.83;;
3993;SDS011;2011;48.238;13.948;2023-05-10T06:50:53;9.43;;;7.03;;
3993;SDS011;2011;48.238;13.948;2023-05-10T06:53:22;12.20;;;7.70;;
3993;SDS011;2011;48.238;13.948;2023-05-10T06:55:49;10.00;;;6.47;;
3993;SDS011;2011;48.238;13.948;2023-05-10T06:58:16;11.90;;;7.70;;
3993;SDS011;2011;48.238;13.948;2023-05-10T07:00:42;12.97;;;7.50;;
3993;SDS011;2011;48.238;13.948;2023-05-10T07:03:10;12.43;;;7.30;;
3993;SDS011;2011;48.238;13.948;2023-05-10T07:05:37;12.00;;;8.10;;
3993;SDS011;2011;48.238;13.948;2023-05-10T07:08:04;29.43;;;8.67;;
3993;SDS011;2011;48.238;13.948;2023-05-10T07:10:32;10.80;;;7.40;;
3993;SDS011;2011;48.238;13.948;2023-05-10T07:12:59;13.40;;;7.10;;
3993;SDS011;2011;48.238;13.948;2023-05-10T07:15:26;11.40;;;7.00;;
3993;SDS011;2011;48.238;13.948;2023-05-10T07:17:53;12.30;;;7.87;;
3993;SDS011;2011;48.238;13.948;2023-05-10T07:20:20;13.30;;;7.40;;
3993;SDS011;2011;48.238;13.948;2023-05-10T07:22:47;16.00;;;7.33;;
3993;SDS011;2011;48.238;13.948;2023-05-10T07:25:14;12.10;;;7.40;;
3993;SDS011;2011;48.238;13.948;2023-05-10T07:27:43;13.30;;;7.83;;
3993;SDS011;2011;48.238;13.948;2023-05-10T07:30:10;19.57;;;7.60;;
3993;SDS011;2011;48.238;13.948;2023-05-10T07:32:38;18.33;;;7.50;;
3993;SDS011;2011;48.238;13.948;2023-05-10T07:35:07;18.47;;;6.63;;
3993;SDS011;2011;48.238;13.948;2023-05-10T07:37:34;16.27;;;7.03;;
3993;SDS011;2011;48.238;13.948;2023-05-10T07:40:01;13.00;;;7.50;;
3993;SDS011;2011;48.238;13.948;2023-05-10T07:42:28;15.77;;;7.20;;
3993;SDS011;2011;48.238;13.948;2023-05-10T07:44:57;12.40;;;7.37;;
3993;SDS011;2011;48.238;13.948;2023-05-10T07:47:24;11.23;;;6.73;;
3993;SDS011;2011;48.238;13.948;2023-05-10T07:49:51;21.03;;;6.70;;
3993;SDS011;2011;48.238;13.948;2023-05-10T07:52:18;10.63;;;6.47;;
3993;SDS011;2011;48.238;13.948;2023-05-10T07:54:45;11.57;;;6.87;;
3993;SDS011;2011;48.238;13.948;2023-05-10T07:57:12;10.53;;;6.80;;
3993;SDS011;2011;48.238;13.948;2023-05-10T07:59:42;13.90;;;7.20;;
3993;SDS011;2011;48.238;13.948;2023-05-10T08:02:11;19.70;;;7.70;;
3993;SDS011;2011;48.238;13.948;2023-05-10T08:04:38;18.63;;;7.00;;
3993;SDS011;2011;48.238;13.948;2023-05-10T08:07:05;22.80;;;7.20;;
3993;SDS011;2011;48.238;13.948;2023-05-10T08:09:32;11.50;;;7.03;;
3993;SDS011;2011;48.238;13.948;2023-05-10T08:11:59;14.07;;;7.67;;
3993;SDS011;2011;48.238;13.948;2023-05-10T08:14:27;18.27;;;8.63;;
3993;SDS011;2011;48.238;13.948;2023-05-10T08:16:55;14.07;;;7.73;;
3993;SDS011;2011;48.238;13.948;2023-05-10T08:19:23;17.47;;;8.13;;
3993;SDS011;2011;48.238;13.948;2023-05-10T08:21:50;18.83;;;8.40;;
3993;SDS011;2011;48.238;13.948;2023-05-10T08:24:18;21.37;;;8.07;;
3993;SDS011;2011;48.238;13.948;2023-05-10T08:26:45;15.10;;;9.40;;
3993;SDS011;2011;48.238;13.948;2023-05-10T08:29:12;18.50;;;9.27;;
3993;SDS011;2011;48.238;13.948;2023-05-10T08:31:40;15.13;;;8.03;;
3993;SDS011;2011;48.238;13.948;2023-05-10T08:34:07;25.73;;;9.00;;
3993;SDS011;2011;48.238;13.948;2023-05-10T08:36:35;16.17;;;9.63;;
3993;SDS011;2011;48.238;13.948;2023-05-10T08:39:02;15.30;;;9.53;;
3993;SDS011;2011;48.238;13.948;2023-05-10T08:41:29;16.97;;;8.70;;
3993;SDS011;2011;48.238;13.948;2023-05-10T08:43:58;14.17;;;9.60;;
3993;SDS011;2011;48.238;13.948;2023-05-10T08:46:30;17.37;;;9.93;;
3993;SDS011;2011;48.238;13.948;2023-05-10T08:48:59;16.27;;;9.70;;
3993;SDS011;2011;48.238;13.948;2023-05-10T08:51:32;24.10;;;9.20;;
3993;SDS011;2011;48.238;13.948;2023-05-10T08:54:06;19.47;;;9.40;;
3993;SDS011;2011;48.238;13.948;2023-05-10T08:56:33;13.93;;;9.33;;
3993;SDS011;2011;48.238;13.948;2023-05-10T08:59:01;29.03;;;10.77;;
3993;SDS011;2011;48.238;13.948;2023-05-10T09:01:28;16.37;;;10.10;;
3993;SDS011;2011;48.238;13.948;2023-05-10T09:03:57;15.90;;;8.47;;
3993;SDS011;2011;48.238;13.948;2023-05-10T09:06:25;21.13;;;9.30;;
3993;SDS011;2011;48.238;13.948;2023-05-10T09:08:53;17.23;;;10.17;;
3993;SDS011;2011;48.238;13.948;2023-05-10T09:11:21;14.90;;;8.87;;
3993;SDS011;2011;48.238;13.948;2023-05-10T09:13:48;14.70;;;8.60;;
3993;SDS011;2011;48.238;13.948;2023-05-10T09:16:18;12.77;;;8.50;;
3993;SDS011;2011;48.238;13.948;2023-05-10T09:18:45;14.80;;;7.87;;
3993;SDS011;2011;48.238;13.948;2023-05-10T09:21:12;15.27;;;8.17;;
3993;SDS011;2011;48.238;13.948;2023-05-10T09:23:42;11.37;;;7.23;;
3993;SDS011;2011;48.238;13.948;2023-05-10T09:26:10;12.20;;;8.10;;
3993;SDS011;2011;48.238;13.948;2023-05-10T09:28:49;14.03;;;7.93;;
3993;SDS011;2011;48.238;13.948;2023-05-10T09:31:17;25.10;;;7.90;;
3993;SDS011;2011;48.238;13.948;2023-05-10T09:33:45;20.67;;;8.20;;
3993;SDS011;2011;48.238;13.948;2023-05-10T09:36:12;14.30;;;7.77;;
3993;SDS011;2011;48.238;13.948;2023-05-10T09:38:46;17.70;;;7.30;;
3993;SDS011;2011;48.238;13.948;2023-05-10T09:41:18;18.03;;;8.63;;
3993;SDS011;2011;48.238;13.948;2023-05-10T09:43:46;21.60;;;9.23;;
3993;SDS011;2011;48.238;13.948;2023-05-10T09:46:13;20.30;;;8.77;;
3993;SDS011;2011;48.238;13.948;2023-05-10T09:48:42;11.70;;;8.90;;
3993;SDS011;2011;48.238;13.948;2023-05-10T09:51:09;15.60;;;9.37;;
3993;SDS011;2011;48.238;13.948;2023-05-10T09:53:36;17.47;;;9.47;;
3993;SDS011;2011;48.238;13.948;2023-05-10T09:56:03;18.40;;;9.03;;
3993;SDS011;2011;48.238;13.948;2023-05-10T09:58:32;12.27;;;9.30;;
3993;SDS011;2011;48.238;13.948;2023-05-10T10:01:04;17.13;;;8.73;;
3993;SDS011;2011;48.238;13.948;2023-05-10T10:03:40;14.30;;;9.60;;
3993;SDS011;2011;48.238;13.948;2023-05-10T10:06:08;17.80;;;11.03;;
3993;SDS011;2011;48.238;13.948;2023-05-10T10:08:35;15.53;;;9.40;;
3993;SDS011;2011;48.238;13.948;2023-05-10T10:11:02;17.60;;;10.53;;
3993;SDS011;2011;48.238;13.948;2023-05-10T10:13:31;15.67;;;10.13;;
3993;SDS011;2011;48.238;13.948;2023-05-10T10:15:58;17.20;;;10.90;;
3993;SDS011;2011;48.238;13.948;2023-05-10T10:18:25;14.00;;;9.23;;
3993;SDS011;2011;48.238;13.948;2023-05-10T10:20:53;12.67;;;9.00;;
3993;SDS011;2011;48.238;13.948;2023-05-10T10:23:21;18.03;;;8.50;;
3993;SDS011;2011;48.238;13.948;2023-05-10T10:25:48;10.10;;;7.13;;
3993;SDS011;2011;48.238;13.948;2023-05-10T10:28:20;16.20;;;9.77;;
3993;SDS011;2011;48.238;13.948;2023-05-10T10:30:54;13.80;;;9.13;;
3993;SDS011;2011;48.238;13.948;2023-05-10T10:33:31;15.10;;;9.53;;
3993;SDS011;2011;48.238;13.948;2023-05-10T10:36:05;16.63;;;10.00;;
3993;SDS011;2011;48.238;13.948;2023-05-10T10:38:36;14.33;;;8.93;;
3993;SDS011;2011;48.238;13.948;2023-05-10T10:41:08;11.97;;;8.73;;
3993;SDS011;2011;48.238;13.948;2023-05-10T10:43:37;14.90;;;10.20;;
3993;SDS011;2011;48.238;13.948;2023-05-10T10:46:12;12.83;;;9.00;;
3993;SDS011;2011;48.238;13.948;2023-05-10T10:48:39;15.40;;;9.23;;
3993;SDS011;2011;48.238;13.948;2023-05-10T10:51:07;14.53;;;9.10;;
3993;SDS011;2011;48.238;13.948;2023-05-10T10:53:34;11.03;;;7.50;;
3993;SDS011;2011;48.238;13.948;2023-05-10T10:56:07;11.70;;;8.93;;
3993;SDS011;2011;48.238;13.948;2023-05-10T10:58:36;13.83;;;8.37;;
3993;SDS011;2011;48.238;13.948;2023-05-10T11:01:15;12.40;;;8.30;;
3993;SDS011;2011;48.238;13.948;2023-05-10T11:03:54;15.00;;;7.60;;
3993;SDS011;2011;48.238;13.948;2023-05-10T11:06:44;12.70;;;8.07;;
3993;SDS011;2011;48.238;13.948;2023-05-10T11:09:11;11.60;;;8.50;;
3993;SDS011;2011;48.238;13.948;2023-05-10T11:11:48;12.63;;;9.40;;
3993;SDS011;2011;48.238;13.948;2023-05-10T11:14:19;15.20;;;9.07;;
3993;SDS011;2011;48.238;13.948;2023-05-10T11:16:48;20.60;;;9.90;;
3993;SDS011;2011;48.238;13.948;2023-05-10T11:19:16;11.60;;;9.00;;
3993;SDS011;2011;48.238;13.948;2023-05-10T11:21:45;15.47;;;11.27;;
3993;SDS011;2011;48.238;13.948;2023-05-10T11:24:13;15.87;;;9.17;;
3993;SDS011;2011;48.238;13.948;2023-05-10T11:26:41;13.87;;;9.50;;
3993;SDS011;2011;48.238;13.948;2023-05-10T11:29:08;11.57;;;9.20;;
3993;SDS011;2011;48.238;13.948;2023-05-10T11:31:38;14.43;;;9.50;;
3993;SDS011;2011;48.238;13.948;2023-05-10T11:34:11;15.77;;;10.00;;
3993;SDS011;2011;48.238;13.948;2023-05-10T11:36:41;14.03;;;9.60;;
3993;SDS011;2011;48.238;13.948;2023-05-10T11:39:08;12.00;;;8.67;;
3993;SDS011;2011;48.238;13.948;2023-05-10T11:41:36;14.00;;;9.20;;
3993;SDS011;2011;48.238;13.948;2023-05-10T11:44:03;13.20;;;8.10;;
3993;SDS011;2011;48.238;13.948;2023-05-10T11:46:30;8.10;;;5.77;;
3993;SDS011;2011;48.238;13.948;2023-05-10T11:48:57;9.73;;;7.97;;
3993;SDS011;2011;48.238;13.948;2023-05-10T11:51:32;14.23;;;7.87;;
3993;SDS011;2011;48.238;13.948;2023-05-10T11:54:00;11.83;;;7.10;;
3993;SDS011;2011;48.238;13.948;2023-05-10T11:56:31;14.10;;;8.73;;
3993;SDS011;2011;48.238;13.948;2023-05-10T11:58:59;11.40;;;7.63;;
3993;SDS011;2011;48.238;13.948;2023-05-10T12:01:27;8.57;;;6.63;;
3993;SDS011;2011;48.238;13.948;2023-05-10T12:03:55;9.10;;;7.20;;
3993;SDS011;2011;48.238;13.948;2023-05-10T12:06:25;7.87;;;5.50;;
3993;SDS011;2011;48.238;13.948;2023-05-10T12:08:54;7.67;;;5.00;;
3993;SDS011;2011;48.238;13.948;2023-05-10T12:11:24;5.50;;;3.70;;
3993;SDS011;2011;48.238;13.948;2023-05-10T12:13:52;4.70;;;3.37;;
3993;SDS011;2011;48.238;13.948;2023-05-10T12:16:20;4.40;;;3.60;;
3993;SDS011;2011;48.238;13.948;2023-05-10T12:18:48;4.80;;;3.90;;
3993;SDS011;2011;48.238;13.948;2023-05-10T12:21:16;5.60;;;4.37;;
3993;SDS011;2011;48.238;13.948;2023-05-10T12:23:43;6.50;;;4.37;;
3993;SDS011;2011;48.238;13.948;2023-05-10T12:26:13;7.27;;;4.50;;
3993;SDS011;2011;48.238;13.948;2023-05-10T12:28:40;6.27;;;4.60;;
3993;SDS011;2011;48.238;13.948;2023-05-10T12:31:08;13.50;;;4.77;;
3993;SDS011;2011;48.238;13.948;2023-05-10T12:33:36;8.73;;;3.70;;
3993;SDS011;2011;48.238;13.948;2023-05-10T12:36:07;4.50;;;3.50;;
3993;SDS011;2011;48.238;13.948;2023-05-10T12:38:35;8.90;;;4.00;;
3993;SDS011;2011;48.238;13.948;2023-05-10T12:41:03;5.27;;;3.37;;
3993;SDS011;2011;48.238;13.948;2023-05-10T12:43:33;5.50;;;4.00;;
3993;SDS011;2011;48.238;13.948;2023-05-10T12:46:04;4.53;;;3.93;;
3993;SDS011;2011;48.238;13.948;2023-05-10T12:48:32;6.00;;;4.50;;
3993;SDS011;2011;48.238;13.948;2023-05-10T12:51:00;5.40;;;3.60;;
3993;SDS011;2011;48.238;13.948;2023-05-10T12:53:27;8.70;;;4.93;;
3993;SDS011;2011;48.238;13.948;2023-05-10T12:55:54;7.53;;;5.17;;
3993;SDS011;2011;48.238;13.948;2023-05-10T12:58:21;6.57;;;4.03;;
3993;SDS011;2011;48.238;13.948;2023-05-10T13:00:49;9.10;;;4.40;;
3993;SDS011;2011;48.238;13.948;2023-05-10T13:03:17;4.87;;;3.93;;
3993;SDS011;2011;48.238;13.948;2023-05-10T13:05:44;7.63;;;4.30;;
3993;SDS011;2011;48.238;13.948;2023-05-10T13:08:11;6.20;;;4.40;;
3993;SDS011;2011;48.238;13.948;2023-05-10T13:10:38;8.17;;;4.70;;
3993;SDS011;2011;48.238;13.948;2023-05-10T13:13:05;6.83;;;4.47;;
3993;SDS011;2011;48.238;13.948;2023-05-10T13:15:33;5.43;;;3.97;;
3993;SDS011;2011;48.238;13.948;2023-05-10T13:18:02;5.27;;;3.70;;
3993;SDS011;2011;48.238;13.948;2023-05-10T13:20:28;5.60;;;4.10;;
3993;SDS011;2011;48.238;13.948;2023-05-10T13:22:55;5.37;;;4.23;;
3993;SDS011;2011;48.238;13.948;2023-05-10T13:25:22;10.70;;;4.87;;
3993;SDS011;2011;48.238;13.948;2023-05-10T13:27:49;6.80;;;4.17;;
3993;SDS011;2011;48.238;13.948;2023-05-10T13:30:16;10.73;;;5.40;;
3993;SDS011;2011;48.238;13.948;2023-05-10T13:32:43;8.33;;;5.50;;
3993;SDS011;2011;48.238;13.948;2023-05-10T13:35:12;6.43;;;5.00;;
3993;SDS011;2011;48.238;13.948;2023-05-10T13:37:38;5.87;;;4.33;;
3993;SDS011;2011;48.238;13.948;2023-05-10T13:40:06;5.40;;;4.40;;
3993;SDS011;2011;48.238;13.948;2023-05-10T13:42:33;5.93;;;3.90;;
3993;SDS011;2011;48.238;13.948;2023-05-10T13:45:00;5.20;;;4.03;;
3993;SDS011;2011;48.238;13.948;2023-05-10T13:47:27;5.80;;;4.77;;
3993;SDS011;2011;48.238;13.948;2023-05-10T13:49:54;7.77;;;4.93;;
3993;SDS011;2011;48.238;13.948;2023-05-10T13:52:23;7.10;;;4.70;;
3993;SDS011;2011;48.238;13.948;2023-05-10T13:54:50;5.13;;;4.00;;
3993;SDS011;2011;48.238;13.948;2023-05-10T13:57:19;6.33;;;4.07;;
3993;SDS011;2011;48.238;13.948;2023-05-10T13:59:47;4.77;;;3.47;;
3993;SDS011;2011;48.238;13.948;2023-05-10T14:02:14;5.17;;;3.70;;
3993;SDS011;2011;48.238;13.948;2023-05-10T14:04:41;4.37;;;3.53;;
3993;SDS011;2011;48.238;13.948;2023-05-10T14:07:07;5.10;;;3.03;;
3993;SDS011;2011;48.238;13.948;2023-05-10T14:09:36;4.30;;;3.10;;
3993;SDS011;2011;48.238;13.948;2023-05-10T14:12:03;6.70;;;3.07;;
3993;SDS011;2011;48.238;13.948;2023-05-10T14:14:30;4.27;;;2.50;;
3993;SDS011;2011;48.238;13.948;2023-05-10T14:16:58;3.30;;;2.30;;
3993;SDS011;2011;48.238;13.948;2023-05-10T14:19:25;3.93;;;2.40;;
3993;SDS011;2011;48.238;13.948;2023-05-10T14:21:53;3.53;;;2.43;;
3993;SDS011;2011;48.238;13.948;2023-05-10T14:24:20;8.50;;;2.77;;
3993;SDS011;2011;48.238;13.948;2023-05-10T14:26:48;3.07;;;2.07;;
3993;SDS011;2011;48.238;13.948;2023-05-10T14:29:18;5.47;;;1.90;;
3993;SDS011;2011;48.238;13.948;2023-05-10T14:31:45;3.40;;;2.10;;
3993;SDS011;2011;48.238;13.948;2023-05-10T14:34:12;4.70;;;2.57;;
3993;SDS011;2011;48.238;13.948;2023-05-10T14:36:39;4.23;;;2.20;;
3993;SDS011;2011;48.238;13.948;2023-05-10T14:39:06;3.17;;;2.30;;
3993;SDS011;2011;48.238;13.948;2023-05-10T14:41:34;3.50;;;2.30;;
3993;SDS011;2011;48.238;13.948;2023-05-10T14:44:03;3.37;;;2.23;;
3993;SDS011;2011;48.238;13.948;2023-05-10T14:46:30;5.20;;;2.40;;
3993;SDS011;2011;48.238;13.948;2023-05-10T14:48:57;3.97;;;2.60;;
3993;SDS011;2011;48.238;13.948;2023-05-10T14:51:24;2.87;;;2.00;;
3993;SDS011;2011;48.238;13.948;2023-05-10T14:53:51;4.13;;;2.37;;
3993;SDS011;2011;48.238;13.948;2023-05-10T14:56:18;4.40;;;2.53;;
3993;SDS011;2011;48.238;13.948;2023-05-10T14:58:46;4.53;;;2.57;;
3993;SDS011;2011;48.238;13.948;2023-05-10T15:01:14;3.70;;;2.30;;